createdAt,value
2022-11-05T00:00:47.011Z,10.52
2022-11-05T00:03:43.523Z,10.55
2022-11-05T00:06:37.027Z,10.52
2022-11-05T00:09:55.605Z,10.55
2022-11-05T00:12:58.285Z,10.61
2022-11-05T00:16:08.152Z,10.51
2022-11-05T00:19:06.508Z,10.51
2022-11-05T00:22:02.530Z,10.22
2022-11-05T00:24:55.923Z,10.22
2022-11-05T00:27:36.513Z,10.20
2022-11-05T00:30:23.031Z,10.16
2022-11-05T00:33:19.445Z,10.14
2022-11-05T00:35:59.592Z,9.96
2022-11-05T00:38:52.055Z,9.85
2022-11-05T00:41:46.450Z,9.78
2022-11-05T00:44:45.017Z,9.81
2022-11-05T00:47:45.824Z,9.74
2022-11-05T00:50:33.150Z,9.65
2022-11-05T00:53:22.207Z,9.46
2022-11-05T00:56:04.501Z,9.44
2022-11-05T00:58:42.280Z,9.53
2022-11-05T01:01:31.285Z,9.33
2022-11-05T01:04:14.307Z,9.13
2022-11-05T01:07:03.323Z,9.11
2022-11-05T01:09:50.210Z,9.00
2022-11-05T01:12:49.643Z,8.78
2022-11-05T01:15:32.206Z,8.90
2022-11-05T01:18:19.138Z,8.89
2022-11-05T01:21:05.746Z,8.85
2022-11-05T01:23:58.156Z,8.77
2022-11-05T01:26:39.273Z,8.98
2022-11-05T01:29:25.457Z,8.99
2022-11-05T01:32:12.442Z,8.87
2022-11-05T01:34:57.364Z,8.80
2022-11-05T01:37:46.227Z,8.63
2022-11-05T01:40:36.354Z,8.59
2022-11-05T01:43:29.064Z,8.64
2022-11-05T01:46:20.028Z,8.63
2022-11-05T01:49:05.584Z,8.41
2022-11-05T01:51:48.992Z,8.52
2022-11-05T01:54:32.881Z,8.31
2022-11-05T01:57:14.975Z,8.25
2022-11-05T02:00:03.332Z,8.19
2022-11-05T02:02:54.566Z,8.26
2022-11-05T02:05:45.016Z,8.27
2022-11-05T02:08:33.767Z,8.23
2022-11-05T02:11:20.515Z,8.21
2022-11-05T02:14:00.854Z,8.33
2022-11-05T02:17:14.243Z,8.20
2022-11-05T02:20:15.477Z,8.15
2022-11-05T02:23:14.334Z,8.21
2022-11-05T02:26:23.900Z,8.20
2022-11-05T02:29:24.285Z,8.21
2022-11-05T02:32:24.383Z,8.17
2022-11-05T02:35:24.161Z,8.18
2022-11-05T02:38:37.399Z,8.09
2022-11-05T02:41:43.338Z,8.08
2022-11-05T02:44:33.067Z,8.11
2022-11-05T02:47:38.765Z,8.23
2022-11-05T02:51:03.817Z,8.28
2022-11-05T02:53:45.912Z,8.16
2022-11-05T02:56:35.002Z,7.99
2022-11-05T02:59:15.467Z,7.98
2022-11-05T03:01:57.712Z,8.00
2022-11-05T03:04:41.895Z,8.03
2022-11-05T03:07:36.445Z,8.03
2022-11-05T03:10:47.360Z,7.96
2022-11-05T03:13:49.507Z,8.14
2022-11-05T03:16:52.414Z,8.01
2022-11-05T03:19:41.429Z,8.03
2022-11-05T03:22:35.503Z,7.97
2022-11-05T03:25:26.443Z,7.79
2022-11-05T03:28:22.881Z,7.86
2022-11-05T03:30:58.587Z,7.89
2022-11-05T03:33:49.464Z,7.92
2022-11-05T03:36:41.298Z,7.87
2022-11-05T03:39:48.933Z,7.88
2022-11-05T03:42:33.625Z,7.80
2022-11-05T03:45:27.458Z,7.74
2022-11-05T03:48:04.785Z,7.78
2022-11-05T03:50:51.387Z,7.87
2022-11-05T03:53:38.953Z,7.87
2022-11-05T03:56:53.845Z,7.99
2022-11-05T03:59:43.576Z,7.86
2022-11-05T04:02:28.066Z,7.79
2022-11-05T04:05:05.499Z,7.65
2022-11-05T04:08:03.060Z,7.86
2022-11-05T04:11:02.072Z,7.86
2022-11-05T04:13:40.936Z,7.82
2022-11-05T04:16:35.355Z,7.82
2022-11-05T04:19:11.474Z,7.88
2022-11-05T04:22:07.626Z,7.93
2022-11-05T04:24:53.659Z,7.80
2022-11-05T04:27:39.922Z,7.82
2022-11-05T04:30:27.550Z,7.74
2022-11-05T04:33:28.246Z,7.74
2022-11-05T04:36:09.063Z,7.74
2022-11-05T04:38:55.572Z,7.71
2022-11-05T04:41:38.681Z,7.69
2022-11-05T04:44:27.523Z,7.71
2022-11-05T04:47:10.457Z,7.76
2022-11-05T04:49:54.712Z,7.83
2022-11-05T04:52:49.269Z,7.79
2022-11-05T04:55:38.880Z,7.75
2022-11-05T04:58:22.826Z,7.73
2022-11-05T05:01:05.839Z,7.77
2022-11-05T05:03:48.323Z,7.79
2022-11-05T05:06:29.627Z,7.71
2022-11-05T05:09:18.410Z,7.79
2022-11-05T05:12:01.411Z,7.67
2022-11-05T05:14:45.429Z,7.79
2022-11-05T05:17:26.449Z,7.71
2022-11-05T05:20:19.948Z,7.75
2022-11-05T05:23:01.366Z,7.80
2022-11-05T05:25:46.937Z,7.82
2022-11-05T05:28:29.801Z,7.71
2022-11-05T05:31:21.377Z,7.74
2022-11-05T05:34:09.005Z,7.69
2022-11-05T05:36:51.929Z,7.70
2022-11-05T05:39:39.461Z,7.66
2022-11-05T05:42:19.626Z,7.66
2022-11-05T05:45:08.083Z,7.63
2022-11-05T05:47:48.090Z,7.71
2022-11-05T05:50:36.852Z,7.73
2022-11-05T05:53:23.458Z,7.74
2022-11-05T05:56:07.394Z,7.74
2022-11-05T05:58:45.626Z,7.82
2022-11-05T06:01:29.436Z,7.80
2022-11-05T06:04:12.429Z,7.79
2022-11-05T06:06:59.221Z,7.65
2022-11-05T06:09:48.217Z,7.70
2022-11-05T06:12:42.880Z,7.73
2022-11-05T06:15:20.450Z,7.87
2022-11-05T06:18:10.141Z,7.69
2022-11-05T06:20:56.096Z,7.85
2022-11-05T06:23:43.460Z,7.72
2022-11-05T06:26:32.052Z,7.78
2022-11-05T06:29:18.878Z,7.72
2022-11-05T06:32:02.814Z,7.83
2022-11-05T06:34:49.483Z,7.75
2022-11-05T06:37:27.810Z,7.82
2022-11-05T06:40:20.500Z,7.85
2022-11-05T06:43:00.867Z,7.88
2022-11-05T06:45:44.992Z,7.93
2022-11-05T06:48:32.183Z,7.81
2022-11-05T06:51:16.717Z,7.88
2022-11-05T06:53:55.350Z,7.84
2022-11-05T06:56:41.343Z,7.93
2022-11-05T06:59:27.340Z,7.82
2022-11-05T07:02:13.557Z,7.94
2022-11-05T07:04:59.621Z,8.07
2022-11-05T07:07:40.004Z,8.10
2022-11-05T07:10:22.425Z,8.05
2022-11-05T07:13:11.093Z,8.10
2022-11-05T07:16:03.500Z,8.18
2022-11-05T07:18:53.468Z,8.16
2022-11-05T07:21:55.513Z,8.27
2022-11-05T07:24:39.661Z,8.22
2022-11-05T07:27:34.075Z,8.17
2022-11-05T07:30:36.072Z,8.14
2022-11-05T07:33:25.325Z,8.23
2022-11-05T07:36:15.421Z,8.30
2022-11-05T07:39:05.186Z,8.33
2022-11-05T07:41:59.558Z,8.44
2022-11-05T07:45:05.719Z,8.52
2022-11-05T07:48:11.426Z,8.55
2022-11-05T07:50:51.844Z,8.63
2022-11-05T07:53:32.608Z,8.64
2022-11-05T07:56:37.110Z,8.68
2022-11-05T07:59:20.472Z,8.72
2022-11-05T08:02:10.131Z,8.79
2022-11-05T08:04:58.391Z,8.59
2022-11-05T08:07:44.489Z,8.66
2022-11-05T08:10:26.265Z,8.68
2022-11-05T08:13:24.370Z,8.72
2022-11-05T08:16:11.448Z,8.67
2022-11-05T08:19:02.054Z,8.73
2022-11-05T08:21:54.731Z,8.83
2022-11-05T08:24:44.021Z,8.80
2022-11-05T08:27:32.598Z,8.74
2022-11-05T08:30:22.909Z,8.77
2022-11-05T08:33:09.754Z,8.84
2022-11-05T08:35:55.708Z,8.81
2022-11-05T08:38:41.475Z,8.74
2022-11-05T08:41:25.755Z,8.77
2022-11-05T08:44:14.646Z,8.90
2022-11-05T08:47:07.064Z,9.02
2022-11-05T08:49:57.364Z,9.01
2022-11-05T08:52:47.901Z,8.89
2022-11-05T08:55:41.103Z,9.13
2022-11-05T08:58:32.891Z,9.18
2022-11-05T09:01:19.335Z,9.10
2022-11-05T09:04:11.832Z,9.07
2022-11-05T09:06:57.192Z,9.22
2022-11-05T09:09:37.066Z,9.42
2022-11-05T09:12:21.133Z,9.34
2022-11-05T09:15:07.115Z,9.58
2022-11-05T09:17:56.829Z,9.50
2022-11-05T09:20:45.025Z,9.46
2022-11-05T09:23:43.894Z,9.54
2022-11-05T09:26:30.169Z,9.54
2022-11-05T09:29:22.075Z,9.38
2022-11-05T09:32:02.771Z,9.64
2022-11-05T09:34:53.686Z,9.57
2022-11-05T09:37:38.429Z,9.60
2022-11-05T09:40:34.680Z,9.58
2022-11-05T09:43:35.402Z,9.81
2022-11-05T09:46:21.620Z,9.90
2022-11-05T09:49:04.361Z,9.85
2022-11-05T09:51:52.909Z,9.90
2022-11-05T09:54:39.110Z,9.94
2022-11-05T09:57:31.435Z,10.04
2022-11-05T10:00:23.652Z,10.18
2022-11-05T10:03:30.672Z,10.32
2022-11-05T10:06:23.165Z,10.45
2022-11-05T10:09:17.682Z,10.55
2022-11-05T10:12:16.811Z,10.65
2022-11-05T10:15:34.000Z,10.65
2022-11-05T10:18:29.363Z,10.47
2022-11-05T10:21:13.389Z,10.41
2022-11-05T10:23:52.955Z,10.54
2022-11-05T10:26:41.774Z,10.75
2022-11-05T10:29:32.508Z,10.82
2022-11-05T10:32:24.572Z,10.94
2022-11-05T10:35:13.940Z,10.81
2022-11-05T10:38:15.643Z,11.06
2022-11-05T10:41:58.859Z,11.08
2022-11-05T10:44:48.994Z,11.23
2022-11-05T10:47:58.217Z,11.07
2022-11-05T10:50:41.638Z,11.07
2022-11-05T10:53:41.123Z,11.03
2022-11-05T10:56:49.445Z,11.13
2022-11-05T10:59:33.673Z,11.20
2022-11-05T11:02:30.326Z,11.23
2022-11-05T11:05:18.865Z,11.23
2022-11-05T11:08:09.900Z,11.41
2022-11-05T11:10:57.296Z,11.21
2022-11-05T11:13:52.580Z,11.26
2022-11-05T11:16:50.883Z,11.50
2022-11-05T11:19:43.808Z,11.85
2022-11-05T11:22:34.455Z,11.81
2022-11-05T11:25:52.801Z,11.79
2022-11-05T11:28:46.995Z,11.62
2022-11-05T11:31:30.502Z,11.66
2022-11-05T11:34:34.456Z,11.71
2022-11-05T11:37:19.429Z,11.64
2022-11-05T11:40:10.016Z,11.91
2022-11-05T11:42:58.785Z,12.15
2022-11-05T11:45:52.435Z,12.26
2022-11-05T11:48:49.069Z,12.42
2022-11-05T11:51:50.098Z,12.95
2022-11-05T11:54:36.708Z,13.10
2022-11-05T11:57:32.161Z,12.92
2022-11-05T12:00:30.254Z,12.95
2022-11-05T12:03:22.677Z,12.98
2022-11-05T12:06:28.509Z,12.88
2022-11-05T12:09:16.446Z,12.78
2022-11-05T12:12:36.458Z,12.46
2022-11-05T12:15:47.854Z,12.28
2022-11-05T12:18:39.489Z,12.30
2022-11-05T12:21:57.288Z,12.29
2022-11-05T12:25:13.082Z,12.47
2022-11-05T12:28:12.779Z,12.46
2022-11-05T12:31:13.456Z,12.59
2022-11-05T12:34:24.636Z,12.51
2022-11-05T12:37:46.443Z,12.65
2022-11-05T12:41:01.827Z,12.46
2022-11-05T12:43:59.749Z,12.34
2022-11-05T12:47:07.921Z,12.52
2022-11-05T12:50:21.135Z,12.52
2022-11-05T12:53:26.575Z,12.48
2022-11-05T12:56:19.126Z,12.40
2022-11-05T12:59:06.465Z,12.23
2022-11-05T13:01:55.253Z,12.24
2022-11-05T13:04:46.871Z,12.22
2022-11-05T13:07:40.287Z,12.33
2022-11-05T13:10:44.409Z,12.31
2022-11-05T13:13:43.740Z,12.31
2022-11-05T13:16:51.340Z,12.34
2022-11-05T13:19:51.540Z,12.22
2022-11-05T13:22:47.786Z,12.26
2022-11-05T13:25:28.638Z,12.23
2022-11-05T13:28:39.885Z,12.30
2022-11-05T13:31:20.602Z,12.25
2022-11-05T13:34:13.447Z,12.03
2022-11-05T13:37:29.999Z,12.01
2022-11-05T13:40:23.402Z,12.06
2022-11-05T13:43:53.440Z,12.07
2022-11-05T13:46:55.592Z,11.91
2022-11-05T13:49:51.601Z,12.09
2022-11-05T13:53:00.418Z,12.01
2022-11-05T13:56:02.765Z,12.07
2022-11-05T13:59:46.643Z,12.01
2022-11-05T14:12:49.275Z,11.82
2022-11-05T14:15:31.829Z,11.83
2022-11-05T14:18:43.083Z,11.77
2022-11-05T14:21:55.465Z,11.65
2022-11-05T14:24:49.097Z,11.70
2022-11-05T14:27:50.639Z,11.62
2022-11-05T14:30:54.561Z,11.62
2022-11-05T14:33:44.089Z,11.59
2022-11-05T14:36:32.995Z,11.60
2022-11-05T14:39:28.105Z,11.52
2022-11-05T14:42:12.892Z,11.51
2022-11-05T14:44:59.092Z,11.47
2022-11-05T14:47:58.831Z,11.38
2022-11-05T14:50:47.608Z,11.36
2022-11-05T14:53:46.737Z,11.30
2022-11-05T14:56:27.745Z,11.28
2022-11-05T14:59:22.267Z,11.22
2022-11-05T15:02:12.051Z,11.29
2022-11-05T15:04:51.732Z,11.08
2022-11-05T15:07:50.528Z,11.16
2022-11-05T15:10:37.468Z,11.27
2022-11-05T15:13:52.545Z,11.06
2022-11-05T15:16:49.154Z,11.09
2022-11-05T15:19:42.076Z,11.21
2022-11-05T15:22:32.006Z,11.16
2022-11-05T15:25:31.249Z,11.10
2022-11-05T15:28:34.385Z,11.11
2022-11-05T15:31:27.890Z,11.06
2022-11-05T15:34:31.933Z,10.96
2022-11-05T15:37:24.208Z,10.90
2022-11-05T15:40:03.559Z,10.85
2022-11-05T15:42:45.192Z,10.88
2022-11-05T15:45:41.105Z,10.80
2022-11-05T15:48:30.250Z,10.82
2022-11-05T15:51:20.199Z,10.68
2022-11-05T15:54:30.139Z,10.86
2022-11-05T15:57:28.411Z,10.89
2022-11-05T16:00:31.020Z,10.75
2022-11-05T16:03:30.076Z,10.69
2022-11-05T16:06:26.102Z,10.58
2022-11-05T16:09:07.694Z,10.65
2022-11-05T16:12:02.962Z,10.57
2022-11-05T16:15:07.617Z,10.60
2022-11-05T16:17:54.559Z,10.57
2022-11-05T16:20:41.945Z,10.50
2022-11-05T16:23:42.175Z,10.47
2022-11-05T16:30:01.148Z,10.24
2022-11-05T16:32:44.856Z,10.13
2022-11-05T16:35:31.102Z,10.19
2022-11-05T16:38:21.249Z,10.10
2022-11-05T16:41:10.270Z,10.00
2022-11-05T16:43:59.183Z,10.13
2022-11-05T16:46:52.231Z,10.10
2022-11-05T16:49:42.429Z,9.87
2022-11-05T16:52:26.091Z,9.81
2022-11-05T16:55:10.088Z,9.82
2022-11-05T16:57:57.114Z,9.88
2022-11-05T17:00:44.405Z,9.87
2022-11-05T17:03:34.113Z,9.64
2022-11-05T17:06:21.332Z,9.65
2022-11-05T17:09:10.823Z,9.49
2022-11-05T17:12:00.889Z,9.46
2022-11-05T17:14:50.401Z,9.51
2022-11-05T17:17:41.664Z,9.55
2022-11-05T17:20:46.641Z,9.56
2022-11-05T17:23:30.256Z,9.49
2022-11-05T17:26:15.216Z,9.53
2022-11-05T17:29:03.588Z,9.53
2022-11-05T17:31:47.639Z,9.61
2022-11-05T17:34:34.126Z,9.57
2022-11-05T17:37:14.550Z,9.48
2022-11-05T17:40:11.530Z,9.54
2022-11-05T17:42:53.222Z,9.42
2022-11-05T17:45:39.213Z,9.45
2022-11-05T17:48:31.941Z,9.46
2022-11-05T17:51:21.497Z,9.44
2022-11-05T17:54:04.622Z,9.51
2022-11-05T17:56:50.308Z,9.48
2022-11-05T17:59:35.524Z,9.47
2022-11-05T18:02:26.730Z,9.56
2022-11-05T18:05:10.402Z,9.41
2022-11-05T18:08:03.603Z,9.53
2022-11-05T18:10:50.523Z,9.52
2022-11-05T18:13:34.626Z,9.40
2022-11-05T18:16:17.569Z,9.41
2022-11-05T18:18:59.131Z,9.40
2022-11-05T18:21:41.514Z,9.43
2022-11-05T18:24:32.637Z,9.41
2022-11-05T18:27:18.434Z,9.27
2022-11-05T18:30:05.510Z,9.30
2022-11-05T18:32:51.440Z,9.35
2022-11-05T18:35:43.456Z,9.33
2022-11-05T18:38:24.092Z,9.39
2022-11-05T18:41:14.116Z,9.50
2022-11-05T18:43:51.959Z,9.44
2022-11-05T18:46:57.067Z,9.51
2022-11-05T18:49:49.177Z,9.55
2022-11-05T18:52:30.170Z,9.45
2022-11-05T18:55:17.191Z,9.51
2022-11-05T18:57:57.677Z,9.56
2022-11-05T19:00:43.203Z,9.50
2022-11-05T19:03:23.822Z,9.49
2022-11-05T19:06:10.536Z,9.56
2022-11-05T19:08:56.071Z,9.49
2022-11-05T19:11:47.787Z,9.58
2022-11-05T19:14:33.163Z,9.67
2022-11-05T19:17:16.648Z,9.56
2022-11-05T19:19:57.133Z,9.56
2022-11-05T19:22:51.620Z,9.54
2022-11-05T19:25:31.264Z,9.59
2022-11-05T19:28:29.087Z,9.47
2022-11-05T19:31:07.325Z,9.33
2022-11-05T19:33:54.666Z,9.55
2022-11-05T19:36:37.148Z,9.32
2022-11-05T19:39:22.976Z,9.47
2022-11-05T19:42:13.233Z,9.42
2022-11-05T19:45:16.758Z,9.39
2022-11-05T19:48:06.531Z,9.38
2022-11-05T19:50:59.382Z,9.53
2022-11-05T19:53:43.825Z,9.52
2022-11-05T19:56:32.965Z,9.47
2022-11-05T19:59:14.038Z,9.44
2022-11-05T20:01:52.592Z,9.44
2022-11-05T20:04:41.010Z,9.35
2022-11-05T20:07:27.556Z,9.37
2022-11-05T20:10:07.611Z,9.43
2022-11-05T20:12:50.566Z,9.43
2022-11-05T20:15:36.035Z,9.48
2022-11-05T20:18:25.359Z,9.38
2022-11-05T20:21:31.477Z,9.49
2022-11-05T20:24:25.272Z,9.36
2022-11-05T20:27:03.561Z,9.33
2022-11-05T20:29:50.026Z,9.41
2022-11-05T20:32:39.040Z,9.39
2022-11-05T20:35:25.489Z,9.25
2022-11-05T20:38:12.275Z,9.41
2022-11-05T20:41:01.803Z,9.37
2022-11-05T20:43:41.076Z,9.39
2022-11-05T20:46:27.061Z,9.33
2022-11-05T20:49:08.098Z,9.30
2022-11-05T20:52:03.164Z,9.38
2022-11-05T20:54:52.998Z,9.34
2022-11-05T20:57:36.794Z,9.45
2022-11-05T21:00:20.825Z,9.49
2022-11-05T21:02:55.573Z,9.47
2022-11-05T21:05:36.390Z,9.39
2022-11-05T21:08:23.066Z,9.48
2022-11-05T21:11:08.492Z,9.47
2022-11-05T21:13:54.797Z,9.40
2022-11-05T21:16:38.959Z,9.45
2022-11-05T21:19:18.259Z,9.37
2022-11-05T21:22:04.196Z,9.38
2022-11-05T21:24:56.794Z,9.24
2022-11-05T21:27:46.454Z,9.23
2022-11-05T21:30:25.126Z,9.16
2022-11-05T21:33:06.103Z,9.27
2022-11-05T21:35:52.886Z,9.23
2022-11-05T21:38:38.275Z,9.35
2022-11-05T21:41:30.028Z,9.33
2022-11-05T21:44:11.513Z,9.30
2022-11-05T21:46:52.475Z,9.34
2022-11-05T21:49:33.042Z,9.32
2022-11-05T21:52:33.884Z,9.37
2022-11-05T21:55:30.168Z,9.32
2022-11-05T21:58:34.763Z,9.28
2022-11-05T22:01:17.831Z,9.29
2022-11-05T22:04:02.845Z,9.34
2022-11-05T22:06:43.398Z,9.31
2022-11-05T22:09:29.892Z,9.26
2022-11-05T22:12:10.502Z,9.20
2022-11-05T22:14:51.109Z,9.20
2022-11-05T22:17:33.828Z,9.26
2022-11-05T22:20:19.708Z,9.23
2022-11-05T22:23:10.882Z,9.31
2022-11-05T22:26:03.324Z,9.42
2022-11-05T22:28:47.117Z,9.46
2022-11-05T22:31:53.400Z,9.41
2022-11-05T22:34:39.857Z,9.34
2022-11-05T22:37:25.230Z,9.42
2022-11-05T22:40:14.323Z,9.38
2022-11-05T22:42:58.984Z,9.34
2022-11-05T22:45:48.554Z,9.30
2022-11-05T22:48:31.493Z,9.23
2022-11-05T22:51:13.780Z,9.30
2022-11-05T22:54:04.229Z,9.25
2022-11-05T22:56:51.084Z,9.18
2022-11-05T22:59:31.939Z,9.28
2022-11-05T23:02:12.733Z,9.19
2022-11-05T23:04:56.055Z,9.29
2022-11-05T23:07:55.579Z,9.32
2022-11-05T23:10:48.841Z,9.26
2022-11-05T23:13:32.127Z,9.07
2022-11-05T23:16:25.784Z,9.22
2022-11-05T23:19:22.311Z,9.26
2022-11-05T23:22:21.606Z,9.20
2022-11-05T23:25:07.672Z,9.05
2022-11-05T23:27:46.437Z,9.11
2022-11-05T23:30:36.969Z,9.08
2022-11-05T23:33:20.295Z,9.24
2022-11-05T23:36:22.138Z,9.12
2022-11-05T23:39:10.096Z,9.05
2022-11-05T23:42:04.978Z,9.24
2022-11-05T23:45:01.931Z,9.09
2022-11-05T23:48:01.270Z,9.02
2022-11-05T23:50:47.183Z,9.09
2022-11-05T23:53:26.899Z,9.10
2022-11-05T23:56:11.892Z,9.26
2022-11-05T23:58:57.649Z,9.22
